Time;durP1;ratioP1;P1;durP2;ratioP2;P2;SDS_P1;SDS_P2;PMS_P1;PMS_P2;Temp;Humidity;BMP_temperature;BMP_pressure;BME280_temperature;BME280_humidity;BME280_pressure;Samples;Min_cycle;Max_cycle;Signal;HPM_P1;HPM_P2
2023/12/29 06:02:29;;;;;;;7.20;4.00;;;;;;;;;;5107530;23;20601;-75
2023/12/29 06:04:55;;;;;;;5.10;3.70;;;;;;;;;;5012667;28;20953;-74
2023/12/29 06:07:21;;;;;;;5.80;4.00;;;;;;;;;;5012794;28;20405;-74
2023/12/29 06:09:47;;;;;;;5.60;3.83;;;;;;;;;;5012683;28;20461;-75
2023/12/29 06:12:13;;;;;;;10.00;4.60;;;;;;;;;;4995744;28;20434;-74
2023/12/29 06:14:39;;;;;;;7.60;4.30;;;;;;;;;;5004195;23;20431;-71
2023/12/29 06:17:05;;;;;;;4.73;3.10;;;;;;;;;;4973117;28;20925;-69
2023/12/29 06:19:32;;;;;;;5.27;4.10;;;;;;;;;;4972979;28;20796;-69
2023/12/29 06:21:58;;;;;;;8.77;4.20;;;;;;;;;;4972979;28;20767;-70
2023/12/29 06:24:24;;;;;;;8.07;4.20;;;;;;;;;;4972805;28;20503;-70
2023/12/29 06:26:50;;;;;;;5.57;3.90;;;;;;;;;;4988190;28;20408;-69
2023/12/29 06:29:16;;;;;;;5.33;3.77;;;;;;;;;;4973148;28;20491;-69
2023/12/29 06:31:42;;;;;;;6.43;4.43;;;;;;;;;;4973408;28;20876;-69
2023/12/29 06:34:08;;;;;;;5.87;4.30;;;;;;;;;;4972860;28;20764;-71
2023/12/29 06:36:34;;;;;;;6.07;4.03;;;;;;;;;;4972712;28;20435;-70
2023/12/29 06:39:00;;;;;;;11.73;4.30;;;;;;;;;;4972822;28;20407;-70
2023/12/29 06:41:26;;;;;;;6.50;4.10;;;;;;;;;;4987839;28;20426;-70
2023/12/29 06:43:52;;;;;;;6.33;3.50;;;;;;;;;;4972556;28;20404;-70
2023/12/29 06:46:18;;;;;;;5.77;3.67;;;;;;;;;;4972799;28;20953;-71
2023/12/29 06:48:44;;;;;;;4.63;3.57;;;;;;;;;;4987602;28;20451;-70
2023/12/29 06:51:16;;;;;;;5.60;3.47;;;;;;;;;;4972610;28;20870;-70
2023/12/29 06:53:42;;;;;;;5.23;3.63;;;;;;;;;;4973219;28;20407;-69
2023/12/29 06:56:08;;;;;;;5.00;3.67;;;;;;;;;;4970149;28;20432;-69
2023/12/29 06:58:35;;;;;;;5.60;3.27;;;;;;;;;;4956791;28;20411;-70
2023/12/29 07:01:01;;;;;;;3.53;2.97;;;;;;;;;;4956670;28;20419;-70
2023/12/29 07:03:27;;;;;;;6.53;3.80;;;;;;;;;;4956497;28;20467;-70
2023/12/29 07:05:53;;;;;;;4.43;3.50;;;;;;;;;;4957533;28;20831;-70
2023/12/29 07:08:19;;;;;;;5.07;3.10;;;;;;;;;;4973601;28;20426;-70
2023/12/29 07:10:49;;;;;;;3.67;3.10;;;;;;;;;;4974936;28;20534;-69
2023/12/29 07:13:15;;;;;;;3.73;3.10;;;;;;;;;;4975446;28;20452;-70
2023/12/29 07:15:41;;;;;;;5.30;3.30;;;;;;;;;;4975545;28;20447;-70
2023/12/29 07:18:07;;;;;;;4.97;3.30;;;;;;;;;;4975664;28;20498;-70
2023/12/29 07:20:33;;;;;;;5.53;3.07;;;;;;;;;;4975659;28;20425;-70
2023/12/29 07:23:00;;;;;;;3.80;2.70;;;;;;;;;;4972524;28;20923;-70
2023/12/29 07:25:26;;;;;;;4.17;2.70;;;;;;;;;;4975581;28;20739;-70
2023/12/29 07:27:52;;;;;;;3.63;2.87;;;;;;;;;;4975379;28;20535;-69
2023/12/29 07:30:18;;;;;;;6.33;3.03;;;;;;;;;;4975505;28;20459;-70
2023/12/29 07:32:45;;;;;;;4.90;3.17;;;;;;;;;;4959467;28;20437;-70
2023/12/29 07:35:11;;;;;;;4.43;3.00;;;;;;;;;;4956152;28;20429;-70
2023/12/29 07:37:37;;;;;;;6.23;3.40;;;;;;;;;;4956281;28;20420;-71
2023/12/29 07:40:03;;;;;;;3.40;2.83;;;;;;;;;;4960632;28;20657;-70
2023/12/29 07:42:29;;;;;;;4.27;2.83;;;;;;;;;;4975741;28;20416;-71
2023/12/29 07:44:56;;;;;;;3.97;2.73;;;;;;;;;;4975947;28;20442;-71
2023/12/29 07:47:22;;;;;;;4.50;2.73;;;;;;;;;;4975903;28;20511;-70
2023/12/29 07:49:48;;;;;;;6.97;3.40;;;;;;;;;;4978283;28;20517;-70
2023/12/29 07:52:14;;;;;;;6.80;2.87;;;;;;;;;;4961352;28;20440;-70
2023/12/29 07:54:40;;;;;;;5.83;2.90;;;;;;;;;;4973679;28;20447;-70
2023/12/29 07:57:06;;;;;;;3.23;2.83;;;;;;;;;;4975772;28;20412;-70
2023/12/29 07:59:32;;;;;;;4.47;2.70;;;;;;;;;;4975226;28;20408;-70
2023/12/29 08:01:58;;;;;;;4.00;2.83;;;;;;;;;;4975614;28;20404;-70
2023/12/29 08:04:24;;;;;;;3.87;2.80;;;;;;;;;;4962054;28;20416;-71
2023/12/29 08:06:50;;;;;;;4.40;2.73;;;;;;;;;;4954728;28;20423;-71
2023/12/29 08:09:16;;;;;;;2.70;2.33;;;;;;;;;;4955728;28;20539;-71
2023/12/29 08:11:43;;;;;;;3.63;3.20;;;;;;;;;;4959323;28;20945;-71
2023/12/29 08:14:09;;;;;;;3.50;2.80;;;;;;;;;;4972566;28;20945;-71
2023/12/29 08:16:40;;;;;;;5.10;2.57;;;;;;;;;;4974379;28;20448;-71
2023/12/29 08:19:06;;;;;;;3.90;3.00;;;;;;;;;;4973353;28;20424;-72
2023/12/29 08:21:32;;;;;;;5.47;2.70;;;;;;;;;;4971351;28;20480;-71
2023/12/29 08:23:58;;;;;;;5.27;3.00;;;;;;;;;;4954991;28;20420;-70
2023/12/29 08:26:25;;;;;;;4.43;3.00;;;;;;;;;;4954872;28;20424;-71
2023/12/29 08:28:51;;;;;;;4.00;2.80;;;;;;;;;;4955345;28;20754;-71
2023/12/29 08:31:18;;;;;;;3.70;3.03;;;;;;;;;;4959985;28;20426;-71
2023/12/29 08:33:44;;;;;;;7.17;3.03;;;;;;;;;;4975030;28;20466;-71
2023/12/29 08:36:12;;;;;;;6.70;2.60;;;;;;;;;;4973553;28;20518;-71
2023/12/29 08:38:38;;;;;;;3.90;2.73;;;;;;;;;;4975869;28;20883;-70
2023/12/29 08:41:04;;;;;;;4.17;3.10;;;;;;;;;;4973272;28;20461;-70
2023/12/29 08:43:30;;;;;;;6.07;2.40;;;;;;;;;;4973831;28;20966;-70
2023/12/29 08:45:56;;;;;;;5.40;2.80;;;;;;;;;;4974122;28;20792;-71
2023/12/29 08:48:22;;;;;;;4.20;3.17;;;;;;;;;;4974308;28;20900;-70
2023/12/29 08:50:49;;;;;;;3.13;2.60;;;;;;;;;;4972934;28;20510;-71
2023/12/29 08:53:18;;;;;;;7.60;3.10;;;;;;;;;;4954738;28;20448;-70
2023/12/29 08:55:44;;;;;;;4.50;2.90;;;;;;;;;;4955163;28;20527;-70
2023/12/29 08:58:11;;;;;;;2.67;2.57;;;;;;;;;;4955052;28;20436;-70
2023/12/29 09:00:37;;;;;;;4.47;3.20;;;;;;;;;;4958872;28;20421;-69
2023/12/29 09:03:03;;;;;;;3.43;3.00;;;;;;;;;;4975227;28;20447;-70
2023/12/29 09:05:29;;;;;;;3.13;2.93;;;;;;;;;;4975183;28;20442;-70
2023/12/29 09:07:55;;;;;;;6.30;3.50;;;;;;;;;;4974887;28;20416;-71
2023/12/29 09:10:22;;;;;;;6.53;2.90;;;;;;;;;;4958892;28;20465;-71
2023/12/29 09:12:48;;;;;;;6.37;3.50;;;;;;;;;;4953888;28;20416;-70
2023/12/29 09:15:14;;;;;;;4.37;2.90;;;;;;;;;;4953911;28;20452;-70
2023/12/29 09:17:40;;;;;;;6.73;3.00;;;;;;;;;;4957292;28;20558;-71
2023/12/29 09:20:07;;;;;;;4.73;2.60;;;;;;;;;;4973590;28;20443;-71
2023/12/29 09:22:33;;;;;;;4.20;2.80;;;;;;;;;;4970598;28;20448;-71
2023/12/29 09:24:59;;;;;;;4.30;2.60;;;;;;;;;;4954068;28;20440;-79
2023/12/29 09:27:25;;;;;;;7.00;3.10;;;;;;;;;;4956265;28;20476;-72
2023/12/29 09:29:51;;;;;;;2.73;2.53;;;;;;;;;;4973142;28;20495;-71
2023/12/29 09:32:17;;;;;;;3.60;2.80;;;;;;;;;;4973371;28;20418;-71
2023/12/29 09:34:43;;;;;;;4.10;2.87;;;;;;;;;;4973330;28;20427;-72
2023/12/29 09:37:09;;;;;;;3.67;2.43;;;;;;;;;;4970657;28;20448;-72
2023/12/29 09:39:35;;;;;;;4.17;2.63;;;;;;;;;;4954614;28;20491;-71
2023/12/29 09:42:01;;;;;;;4.40;2.90;;;;;;;;;;4968324;28;20560;-72
2023/12/29 09:44:31;;;;;;;4.00;2.50;;;;;;;;;;4968301;28;20510;-72
2023/12/29 09:47:01;;;;;;;4.70;2.30;;;;;;;;;;4972032;28;20527;-71
2023/12/29 09:49:27;;;;;;;8.53;2.30;;;;;;;;;;4973230;28;20965;-71
2023/12/29 09:51:54;;;;;;;4.63;3.07;;;;;;;;;;4973262;28;20502;-71
2023/12/29 09:54:20;;;;;;;5.63;2.50;;;;;;;;;;4957772;28;20508;-72
2023/12/29 09:56:46;;;;;;;4.13;2.67;;;;;;;;;;4952416;28;20995;-72
2023/12/29 09:59:13;;;;;;;2.97;2.27;;;;;;;;;;4953902;28;20416;-72
2023/12/29 10:01:39;;;;;;;3.70;2.20;;;;;;;;;;4953903;28;20417;-73
2023/12/29 10:04:05;;;;;;;2.00;1.93;;;;;;;;;;4964928;28;20416;-73
2023/12/29 10:06:35;;;;;;;6.20;3.20;;;;;;;;;;4972996;28;20436;-73
2023/12/29 10:09:04;;;;;;;2.77;1.70;;;;;;;;;;4972798;28;20412;-73
2023/12/29 10:11:31;;;;;;;2.50;1.93;;;;;;;;;;4972938;28;20451;-73
2023/12/29 10:14:00;;;;;;;2.60;2.20;;;;;;;;;;4962161;28;20420;-73
2023/12/29 10:16:33;;;;;;;2.80;1.90;;;;;;;;;;4953492;28;20456;-74
2023/12/29 10:19:00;;;;;;;5.63;2.80;;;;;;;;;;4953451;28;20413;-73
2023/12/29 10:21:36;;;;;;;2.37;2.17;;;;;;;;;;4953455;28;20413;-73
2023/12/29 10:24:02;;;;;;;3.67;2.00;;;;;;;;;;4963096;28;20447;-73
2023/12/29 10:26:28;;;;;;;2.83;2.13;;;;;;;;;;4972777;28;20458;-73
2023/12/29 10:28:55;;;;;;;3.00;2.37;;;;;;;;;;4973901;28;20797;-73
2023/12/29 10:31:21;;;;;;;3.10;2.20;;;;;;;;;;4976378;28;20511;-73
2023/12/29 10:33:50;;;;;;;4.60;2.43;;;;;;;;;;4967530;28;20471;-73
2023/12/29 10:36:16;;;;;;;2.53;2.10;;;;;;;;;;4956945;28;20595;-73
2023/12/29 10:38:43;;;;;;;4.60;2.17;;;;;;;;;;4957214;28;20777;-73
2023/12/29 10:41:15;;;;;;;4.30;3.23;;;;;;;;;;4957139;28;20416;-73
2023/12/29 10:43:42;;;;;;;2.83;2.00;;;;;;;;;;4963987;28;20835;-72
2023/12/29 10:46:08;;;;;;;2.63;2.00;;;;;;;;;;4976246;28;20440;-72
2023/12/29 10:48:34;;;;;;;3.97;2.27;;;;;;;;;;4976382;28;20420;-74
2023/12/29 10:51:04;;;;;;;2.00;1.90;;;;;;;;;;4976604;28;20959;-73
2023/12/29 10:53:30;;;;;;;2.00;1.80;;;;;;;;;;4976084;28;20450;-73
2023/12/29 10:55:58;;;;;;;2.53;1.80;;;;;;;;;;4976029;28;20431;-73
2023/12/29 10:58:27;;;;;;;1.67;1.50;;;;;;;;;;4976461;28;20482;-72
2023/12/29 11:00:53;;;;;;;4.23;2.07;;;;;;;;;;4976263;28;20495;-72
2023/12/29 11:03:19;;;;;;;2.67;2.10;;;;;;;;;;4975283;28;20567;-74
2023/12/29 11:05:45;;;;;;;2.73;1.87;;;;;;;;;;4975925;28;20867;-71
2023/12/29 11:08:18;;;;;;;2.60;1.60;;;;;;;;;;4976231;28;20420;-71
2023/12/29 11:10:45;;;;;;;2.33;2.03;;;;;;;;;;4975839;28;20467;-71
2023/12/29 11:13:14;;;;;;;2.73;1.67;;;;;;;;;;4973080;28;20763;-73
2023/12/29 11:15:46;;;;;;;1.60;1.50;;;;;;;;;;4956472;28;20464;-73
2023/12/29 11:18:16;;;;;;;2.03;1.40;;;;;;;;;;4956379;28;20409;-71
2023/12/29 11:20:43;;;;;;;3.43;1.57;;;;;;;;;;4956423;28;20444;-71
2023/12/29 11:23:15;;;;;;;2.47;1.67;;;;;;;;;;4956667;28;20444;-72
2023/12/29 11:25:48;;;;;;;1.57;1.53;;;;;;;;;;4956407;28;20439;-72
2023/12/29 11:28:15;;;;;;;1.63;1.53;;;;;;;;;;4957106;28;20412;-71
2023/12/29 11:30:41;;;;;;;2.77;1.80;;;;;;;;;;4956139;28;21047;-72
2023/12/29 11:33:16;;;;;;;2.20;1.80;;;;;;;;;;4957244;28;20500;-71
2023/12/29 11:36:00;;;;;;;2.00;1.90;;;;;;;;;;4975394;28;20439;-71
2023/12/29 11:38:45;;;;;;;2.07;1.67;;;;;;;;;;4975651;28;20423;-72
2023/12/29 11:41:18;;;;;;;1.90;1.80;;;;;;;;;;4975102;28;20872;-72
2023/12/29 11:43:44;;;;;;;2.17;2.00;;;;;;;;;;4968797;28;20783;-72
2023/12/29 11:46:28;;;;;;;2.60;1.60;;;;;;;;;;4955970;28;20425;-72
2023/12/29 11:48:56;;;;;;;1.63;1.60;;;;;;;;;;4956281;28;20420;-72
2023/12/29 11:51:28;;;;;;;2.50;1.73;;;;;;;;;;4955777;28;20580;-72
2023/12/29 11:53:54;;;;;;;2.13;1.70;;;;;;;;;;4962713;28;20424;-72
2023/12/29 11:56:20;;;;;;;1.80;1.23;;;;;;;;;;4975707;28;20439;-72
2023/12/29 11:58:46;;;;;;;2.67;1.50;;;;;;;;;;4975373;28;20411;-72
2023/12/29 12:01:12;;;;;;;1.70;1.60;;;;;;;;;;4976386;28;20416;-72
2023/12/29 12:03:38;;;;;;;1.40;1.27;;;;;;;;;;4968453;28;20520;-72
2023/12/29 12:06:04;;;;;;;2.40;1.80;;;;;;;;;;4955970;28;20438;-71
2023/12/29 12:08:35;;;;;;;1.50;1.43;;;;;;;;;;4955784;28;20420;-72
2023/12/29 12:11:19;;;;;;;2.10;1.40;;;;;;;;;;4955693;28;20496;-71
2023/12/29 12:13:46;;;;;;;1.37;1.27;;;;;;;;;;4974146;28;20438;-73
2023/12/29 12:16:32;;;;;;;3.07;1.70;;;;;;;;;;4974615;28;20467;-71
2023/12/29 12:18:58;;;;;;;1.87;1.60;;;;;;;;;;4974638;28;20404;-71
2023/12/29 12:21:24;;;;;;;1.37;1.30;;;;;;;;;;4974693;28;20408;-71
2023/12/29 12:23:51;;;;;;;1.70;1.60;;;;;;;;;;4955787;28;20428;-71
2023/12/29 12:26:18;;;;;;;1.70;1.60;;;;;;;;;;4954027;28;20443;-71
2023/12/29 12:28:45;;;;;;;1.40;1.30;;;;;;;;;;4955871;28;20417;-71
2023/12/29 12:31:13;;;;;;;4.17;1.90;;;;;;;;;;4955382;28;20467;-71
2023/12/29 12:33:39;;;;;;;1.57;1.43;;;;;;;;;;4971193;28;20415;-71
2023/12/29 12:36:06;;;;;;;2.67;1.77;;;;;;;;;;4974656;28;20428;-71
2023/12/29 12:38:33;;;;;;;2.03;1.80;;;;;;;;;;4974264;28;20408;-71
2023/12/29 12:41:10;;;;;;;3.07;1.93;;;;;;;;;;4974453;28;20798;-71
2023/12/29 12:43:37;;;;;;;1.73;1.63;;;;;;;;;;4957683;28;20420;-72
2023/12/29 12:46:04;;;;;;;3.50;1.87;;;;;;;;;;4955003;28;20432;-71
2023/12/29 12:48:35;;;;;;;4.60;1.40;;;;;;;;;;4955067;28;20432;-72
2023/12/29 12:51:03;;;;;;;3.43;2.03;;;;;;;;;;4955399;28;20847;-71
2023/12/29 12:53:29;;;;;;;3.13;2.00;;;;;;;;;;4974666;28;20415;-71
2023/12/29 12:55:55;;;;;;;6.67;2.20;;;;;;;;;;4975788;28;20432;-71
2023/12/29 12:58:21;;;;;;;3.00;1.83;;;;;;;;;;4974495;28;20415;-71
2023/12/29 13:00:48;;;;;;;2.93;1.80;;;;;;;;;;4974130;28;20416;-70
2023/12/29 13:03:15;;;;;;;2.70;2.20;;;;;;;;;;4960820;28;20432;-71
2023/12/29 13:05:41;;;;;;;4.10;2.10;;;;;;;;;;4969528;28;20448;-71
2023/12/29 13:08:07;;;;;;;3.70;2.40;;;;;;;;;;4973798;28;20416;-72
2023/12/29 13:10:33;;;;;;;4.23;2.27;;;;;;;;;;4973391;28;20464;-72
2023/12/29 13:12:59;;;;;;;2.80;1.80;;;;;;;;;;4971723;28;20507;-72
2023/12/29 13:15:25;;;;;;;2.90;2.07;;;;;;;;;;4973369;28;20645;-72
2023/12/29 13:17:54;;;;;;;3.70;2.00;;;;;;;;;;4973460;28;20408;-72
2023/12/29 13:20:20;;;;;;;1.60;1.50;;;;;;;;;;4973336;28;20408;-72
2023/12/29 13:22:53;;;;;;;2.37;1.70;;;;;;;;;;4963684;28;20484;-72
2023/12/29 13:25:21;;;;;;;2.77;2.20;;;;;;;;;;4954041;28;20980;-72
2023/12/29 13:27:48;;;;;;;4.20;1.90;;;;;;;;;;4954172;28;20416;-72
2023/12/29 13:30:14;;;;;;;3.80;1.90;;;;;;;;;;4955883;28;20460;-72
2023/12/29 13:32:41;;;;;;;2.67;1.80;;;;;;;;;;4973128;28;20407;-72
2023/12/29 13:35:11;;;;;;;1.67;1.60;;;;;;;;;;4973021;28;20470;-72
2023/12/29 13:37:57;;;;;;;2.10;1.60;;;;;;;;;;4973546;28;20439;-73
2023/12/29 13:40:24;;;;;;;2.03;1.70;;;;;;;;;;4961654;28;20950;-72
2023/12/29 13:42:52;;;;;;;3.07;1.80;;;;;;;;;;4972978;28;20416;-72
2023/12/29 13:45:19;;;;;;;2.60;1.80;;;;;;;;;;4973146;28;20522;-72
2023/12/29 13:47:46;;;;;;;1.63;1.53;;;;;;;;;;4973104;28;20416;-71
2023/12/29 13:50:12;;;;;;;1.53;1.50;;;;;;;;;;4971091;28;20958;-72
2023/12/29 13:52:38;;;;;;;2.30;2.10;;;;;;;;;;4953619;28;20776;-72
2023/12/29 13:55:06;;;;;;;3.23;2.30;;;;;;;;;;4953969;28;20512;-72
2023/12/29 13:57:32;;;;;;;2.63;2.10;;;;;;;;;;4953844;28;20435;-72
2023/12/29 14:00:12;;;;;;;2.70;2.00;;;;;;;;;;4953638;28;20413;-72
2023/12/29 14:02:40;;;;;;;1.60;1.50;;;;;;;;;;4954119;28;20413;-72
2023/12/29 14:05:25;;;;;;;3.50;2.10;;;;;;;;;;4972300;28;20441;-72
2023/12/29 14:07:56;;;;;;;3.17;2.40;;;;;;;;;;4957600;28;20900;-72
2023/12/29 14:10:22;;;;;;;2.00;1.80;;;;;;;;;;4959477;28;20962;-72
2023/12/29 14:12:48;;;;;;;2.73;1.80;;;;;;;;;;4975943;28;20420;-72
2023/12/29 14:15:14;;;;;;;3.10;1.83;;;;;;;;;;4976595;28;20538;-72
2023/12/29 14:17:40;;;;;;;1.90;1.63;;;;;;;;;;4975380;28;20415;-72
2023/12/29 14:20:07;;;;;;;3.80;2.00;;;;;;;;;;4976526;28;20499;-72
2023/12/29 14:22:36;;;;;;;3.50;2.17;;;;;;;;;;4976313;28;20479;-71
2023/12/29 14:25:07;;;;;;;3.30;2.37;;;;;;;;;;4976401;28;20431;-71
2023/12/29 14:27:33;;;;;;;5.20;3.00;;;;;;;;;;4976617;28;20986;-71
2023/12/29 14:29:59;;;;;;;7.70;4.80;;;;;;;;;;4976501;28;20537;-71
2023/12/29 14:32:25;;;;;;;8.87;4.70;;;;;;;;;;4975844;28;20446;-72
2023/12/29 14:34:52;;;;;;;7.57;4.13;;;;;;;;;;4976402;28;20799;-71
2023/12/29 14:37:19;;;;;;;6.63;3.07;;;;;;;;;;4976307;28;20848;-71
2023/12/29 14:39:49;;;;;;;4.00;2.60;;;;;;;;;;4966353;28;20783;-71
2023/12/29 14:42:15;;;;;;;2.77;1.80;;;;;;;;;;4956777;28;20764;-71
2023/12/29 14:44:41;;;;;;;3.40;2.70;;;;;;;;;;4956871;28;20432;-71
2023/12/29 14:47:07;;;;;;;3.20;2.00;;;;;;;;;;4956841;28;20413;-71
2023/12/29 14:49:33;;;;;;;6.50;3.33;;;;;;;;;;4964722;28;20474;-71
2023/12/29 14:51:59;;;;;;;2.77;2.60;;;;;;;;;;4976142;28;20404;-71
2023/12/29 14:54:25;;;;;;;2.90;2.20;;;;;;;;;;4976064;28;20416;-71
2023/12/29 14:56:51;;;;;;;3.20;2.43;;;;;;;;;;4976217;28;20760;-71
2023/12/29 14:59:17;;;;;;;2.50;2.00;;;;;;;;;;4970657;28;20409;-71
2023/12/29 15:01:43;;;;;;;6.03;2.60;;;;;;;;;;4956824;28;20951;-71
2023/12/29 15:04:12;;;;;;;4.77;2.70;;;;;;;;;;4956491;28;20479;-71
2023/12/29 15:06:38;;;;;;;9.43;3.67;;;;;;;;;;4956551;28;20448;-71
2023/12/29 15:09:06;;;;;;;2.70;2.10;;;;;;;;;;4957332;28;20447;-71
2023/12/29 15:11:31;;;;;;;2.20;2.00;;;;;;;;;;4972572;28;20434;-71
2023/12/29 15:13:57;;;;;;;3.17;2.17;;;;;;;;;;4975391;28;20490;-72
2023/12/29 15:16:23;;;;;;;10.60;10.03;;;;;;;;;;4973806;28;20787;-71
2023/12/29 15:18:49;;;;;;;4.53;3.77;;;;;;;;;;4975944;28;20875;-72
2023/12/29 15:21:15;;;;;;;4.53;3.07;;;;;;;;;;4962217;28;20424;-72
2023/12/29 15:23:41;;;;;;;2.37;2.20;;;;;;;;;;4956012;28;20409;-71
2023/12/29 15:26:07;;;;;;;8.60;2.13;;;;;;;;;;4956138;28;20903;-71
2023/12/29 15:28:33;;;;;;;3.47;2.47;;;;;;;;;;4956185;28;20413;-71
2023/12/29 15:30:59;;;;;;;2.87;1.93;;;;;;;;;;4956028;28;20503;-71
2023/12/29 15:33:25;;;;;;;1.97;1.87;;;;;;;;;;4955719;28;20413;-71
2023/12/29 15:35:51;;;;;;;2.60;1.70;;;;;;;;;;4956250;28;20432;-71
2023/12/29 15:38:19;;;;;;;1.80;1.70;;;;;;;;;;4960604;28;20815;-70
2023/12/29 15:40:45;;;;;;;2.10;1.60;;;;;;;;;;4976275;28;20419;-70
2023/12/29 15:43:11;;;;;;;3.50;1.73;;;;;;;;;;4975584;28;20427;-71
2023/12/29 15:45:37;;;;;;;3.33;3.13;;;;;;;;;;4975318;28;20432;-71
2023/12/29 15:48:03;;;;;;;4.40;2.30;;;;;;;;;;4973066;28;20502;-71
2023/12/29 15:50:29;;;;;;;5.93;2.20;;;;;;;;;;4955248;28;20460;-71
2023/12/29 15:52:55;;;;;;;10.03;2.40;;;;;;;;;;4955863;28;20783;-71
2023/12/29 15:55:21;;;;;;;5.13;2.83;;;;;;;;;;4955977;28;20428;-72
2023/12/29 15:57:47;;;;;;;2.53;1.90;;;;;;;;;;4956008;28;20413;-71
2023/12/29 16:00:13;;;;;;;3.00;2.20;;;;;;;;;;4974428;28;20428;-71
2023/12/29 16:02:39;;;;;;;2.07;1.93;;;;;;;;;;4974719;28;20975;-71
2023/12/29 16:05:05;;;;;;;3.20;2.00;;;;;;;;;;4975300;28;20515;-71
2023/12/29 16:07:31;;;;;;;1.97;1.87;;;;;;;;;;4975406;28;20416;-71
2023/12/29 16:09:58;;;;;;;2.20;2.00;;;;;;;;;;4965950;28;20499;-72
2023/12/29 16:12:24;;;;;;;2.80;2.20;;;;;;;;;;4974440;28;20423;-70
2023/12/29 16:14:50;;;;;;;4.63;2.37;;;;;;;;;;4974392;28;20962;-70
2023/12/29 16:17:16;;;;;;;2.50;2.30;;;;;;;;;;4974665;28;20500;-70
2023/12/29 16:19:42;;;;;;;2.63;2.47;;;;;;;;;;4960565;28;20425;-71
2023/12/29 16:22:08;;;;;;;4.27;2.40;;;;;;;;;;4955213;28;20448;-72
2023/12/29 16:24:38;;;;;;;4.20;2.27;;;;;;;;;;4955082;28;20432;-71
2023/12/29 16:27:04;;;;;;;2.20;2.00;;;;;;;;;;4954094;28;20417;-71
2023/12/29 16:29:30;;;;;;;5.53;2.50;;;;;;;;;;4955368;28;20467;-71
2023/12/29 16:31:56;;;;;;;4.80;2.37;;;;;;;;;;4955532;28;20417;-71
2023/12/29 16:34:22;;;;;;;3.90;2.47;;;;;;;;;;4954577;28;20868;-71
2023/12/29 16:36:58;;;;;;;7.17;3.70;;;;;;;;;;4954676;28;20414;-71
2023/12/29 16:39:24;;;;;;;12.30;3.97;;;;;;;;;;4965900;28;20443;-70
2023/12/29 16:41:50;;;;;;;9.40;4.13;;;;;;;;;;4973717;28;21051;-71
2023/12/29 16:44:16;;;;;;;10.37;3.20;;;;;;;;;;4973578;28;20423;-70
2023/12/29 16:46:43;;;;;;;4.83;2.70;;;;;;;;;;4973944;28;20412;-70
2023/12/29 16:49:09;;;;;;;5.27;3.57;;;;;;;;;;4964331;28;20432;-72
2023/12/29 16:51:35;;;;;;;8.43;2.87;;;;;;;;;;4954768;28;20916;-71
2023/12/29 16:54:02;;;;;;;4.10;2.83;;;;;;;;;;4954692;28;20416;-72
2023/12/29 16:56:28;;;;;;;4.20;2.90;;;;;;;;;;4954607;28;20515;-71
2023/12/29 16:58:54;;;;;;;4.80;2.93;;;;;;;;;;4954538;28;20927;-71
2023/12/29 17:01:22;;;;;;;2.83;2.60;;;;;;;;;;4964247;28;21092;-71
2023/12/29 17:03:48;;;;;;;5.27;3.00;;;;;;;;;;4972703;28;20424;-72
2023/12/29 17:06:14;;;;;;;7.63;3.63;;;;;;;;;;4973931;28;20964;-72
2023/12/29 17:08:40;;;;;;;5.00;2.73;;;;;;;;;;4973965;28;20460;-73
2023/12/29 17:11:06;;;;;;;4.07;2.80;;;;;;;;;;4973549;28;20863;-73
2023/12/29 17:13:33;;;;;;;8.07;3.93;;;;;;;;;;4964779;28;20453;-73
2023/12/29 17:15:59;;;;;;;5.97;2.80;;;;;;;;;;4953972;28;20459;-72
2023/12/29 17:18:25;;;;;;;3.60;2.70;;;;;;;;;;4955270;28;20416;-72
2023/12/29 17:20:51;;;;;;;7.20;2.53;;;;;;;;;;4967878;28;20455;-72
2023/12/29 17:23:17;;;;;;;8.03;3.37;;;;;;;;;;4973539;28;20864;-72
2023/12/29 17:25:45;;;;;;;3.30;2.40;;;;;;;;;;4973459;28;20432;-72
2023/12/29 17:28:11;;;;;;;7.00;3.47;;;;;;;;;;4973456;28;20819;-73
2023/12/29 17:30:36;;;;;;;37.80;4.30;;;;;;;;;;4971877;28;20474;-72
2023/12/29 17:33:02;;;;;;;5.57;3.07;;;;;;;;;;4973009;28;20933;-72
2023/12/29 17:35:28;;;;;;;4.23;3.17;;;;;;;;;;4973140;28;20494;-72
2023/12/29 17:37:54;;;;;;;4.13;2.83;;;;;;;;;;4972905;28;20491;-72
2023/12/29 17:40:20;;;;;;;7.87;3.20;;;;;;;;;;4973304;28;20492;-72
2023/12/29 17:42:46;;;;;;;11.53;4.00;;;;;;;;;;4960231;28;21038;-72
2023/12/29 17:45:13;;;;;;;4.57;3.27;;;;;;;;;;4953738;28;20512;-72
2023/12/29 17:47:40;;;;;;;4.50;2.90;;;;;;;;;;4953868;28;20445;-72
2023/12/29 17:50:06;;;;;;;6.00;3.10;;;;;;;;;;4962643;28;20467;-73
2023/12/29 17:52:32;;;;;;;5.30;3.00;;;;;;;;;;4973243;28;20408;-72
2023/12/29 17:54:58;;;;;;;3.07;2.50;;;;;;;;;;4974213;28;20439;-72
2023/12/29 17:57:24;;;;;;;4.73;2.90;;;;;;;;;;4974644;28;20416;-73
2023/12/29 17:59:50;;;;;;;4.37;3.20;;;;;;;;;;4967587;28;20420;-72
2023/12/29 18:02:16;;;;;;;4.63;3.63;;;;;;;;;;4954182;28;20413;-72
2023/12/29 18:04:42;;;;;;;7.20;3.10;;;;;;;;;;4955039;28;20827;-71
2023/12/29 18:07:08;;;;;;;10.33;4.27;;;;;;;;;;4954130;28;20779;-72
2023/12/29 18:09:40;;;;;;;8.37;4.07;;;;;;;;;;4953739;28;20488;-73
2023/12/29 18:12:06;;;;;;;18.10;4.40;;;;;;;;;;4963839;28;20462;-72
2023/12/29 18:14:38;;;;;;;6.43;3.93;;;;;;;;;;4972628;28;20880;-72
2023/12/29 18:17:09;;;;;;;9.00;4.63;;;;;;;;;;4972002;28;20962;-73
2023/12/29 18:19:35;;;;;;;11.73;4.50;;;;;;;;;;4973103;28;20416;-73
2023/12/29 18:22:01;;;;;;;10.60;4.90;;;;;;;;;;4972901;28;20415;-73
2023/12/29 18:24:27;;;;;;;8.97;5.17;;;;;;;;;;4961698;28;20515;-73
2023/12/29 18:26:53;;;;;;;10.80;5.10;;;;;;;;;;4953525;28;20455;-73
2023/12/29 18:29:19;;;;;;;6.57;4.20;;;;;;;;;;4953487;28;20417;-73
2023/12/29 18:31:45;;;;;;;6.90;4.80;;;;;;;;;;4953714;28;20416;-73
2023/12/29 18:34:11;;;;;;;7.50;5.10;;;;;;;;;;4953299;28;20408;-73
2023/12/29 18:36:37;;;;;;;8.83;5.50;;;;;;;;;;4967749;28;21034;-73
2023/12/29 18:39:03;;;;;;;16.40;7.03;;;;;;;;;;4972693;28;20540;-73
2023/12/29 18:41:30;;;;;;;18.10;7.70;;;;;;;;;;4972679;28;20416;-73
2023/12/29 18:43:56;;;;;;;22.57;9.30;;;;;;;;;;4972499;28;20423;-73
2023/12/29 18:46:22;;;;;;;14.07;7.47;;;;;;;;;;4972605;28;20435;-73
2023/12/29 18:48:48;;;;;;;9.53;6.40;;;;;;;;;;4957575;28;20413;-73
2023/12/29 18:51:17;;;;;;;11.07;5.30;;;;;;;;;;4956377;28;20479;-73
2023/12/29 18:53:44;;;;;;;11.33;5.33;;;;;;;;;;4957034;28;20413;-73
2023/12/29 18:56:10;;;;;;;10.07;5.97;;;;;;;;;;4956841;28;20428;-73
2023/12/29 18:58:36;;;;;;;13.73;7.33;;;;;;;;;;4956922;28;20483;-73
2023/12/29 19:01:03;;;;;;;14.00;6.70;;;;;;;;;;4973841;28;20424;-73
2023/12/29 19:03:34;;;;;;;12.53;5.67;;;;;;;;;;4976072;28;20791;-73
2023/12/29 19:06:00;;;;;;;7.40;3.57;;;;;;;;;;4977473;28;20434;-73
2023/12/29 19:08:27;;;;;;;6.53;4.47;;;;;;;;;;4969457;28;20924;-73
2023/12/29 19:10:54;;;;;;;7.67;4.17;;;;;;;;;;4957738;28;20543;-72
2023/12/29 19:13:20;;;;;;;8.33;4.67;;;;;;;;;;4974794;28;20443;-73
2023/12/29 19:15:48;;;;;;;8.43;4.57;;;;;;;;;;4977258;28;20534;-73
2023/12/29 19:18:14;;;;;;;18.60;7.83;;;;;;;;;;4977451;28;20408;-73
2023/12/29 19:20:39;;;;;;;45.40;17.37;;;;;;;;;;4978993;28;20748;-73
2023/12/29 19:23:05;;;;;;;31.30;13.30;;;;;;;;;;4970971;28;20424;-72
2023/12/29 19:25:31;;;;;;;22.37;11.03;;;;;;;;;;4965458;28;20924;-73
2023/12/29 19:27:59;;;;;;;30.50;13.90;;;;;;;;;;4979170;28;20424;-72
2023/12/29 19:30:26;;;;;;;55.43;23.17;;;;;;;;;;4985452;28;20558;-72
2023/12/29 19:32:52;;;;;;;40.13;15.40;;;;;;;;;;4985885;28;20412;-73
2023/12/29 19:35:18;;;;;;;35.33;14.73;;;;;;;;;;4980951;28;20514;-73
2023/12/29 19:37:44;;;;;;;27.30;10.53;;;;;;;;;;4962842;28;20452;-73
2023/12/29 19:40:11;;;;;;;30.40;11.47;;;;;;;;;;4956304;28;20459;-73
2023/12/29 19:42:37;;;;;;;17.87;8.27;;;;;;;;;;4966215;28;20427;-74
2023/12/29 19:45:03;;;;;;;17.63;8.17;;;;;;;;;;4975435;28;20423;-74
2023/12/29 19:47:29;;;;;;;12.20;6.17;;;;;;;;;;4975553;28;20940;-73
2023/12/29 19:49:55;;;;;;;13.33;6.23;;;;;;;;;;4966195;28;20483;-74
2023/12/29 19:52:24;;;;;;;23.00;8.80;;;;;;;;;;4957722;28;20452;-73
2023/12/29 19:54:50;;;;;;;21.23;9.70;;;;;;;;;;4956625;28;20437;-73
2023/12/29 19:57:16;;;;;;;32.03;12.70;;;;;;;;;;4957262;28;20417;-73
2023/12/29 19:59:45;;;;;;;16.80;8.00;;;;;;;;;;4975580;28;20419;-73
2023/12/29 20:02:11;;;;;;;23.73;9.33;;;;;;;;;;4975265;28;20415;-73
2023/12/29 20:04:38;;;;;;;18.80;8.90;;;;;;;;;;4973563;28;20505;-73
2023/12/29 20:07:04;;;;;;;18.50;8.60;;;;;;;;;;4974967;28;20495;-73
2023/12/29 20:09:32;;;;;;;17.90;7.67;;;;;;;;;;4974943;28;20495;-74
2023/12/29 20:11:58;;;;;;;13.70;6.70;;;;;;;;;;4962290;28;20420;-74
2023/12/29 20:14:24;;;;;;;15.93;6.83;;;;;;;;;;4955305;28;20424;-73
2023/12/29 20:16:50;;;;;;;13.80;6.63;;;;;;;;;;4955561;28;20420;-73
2023/12/29 20:19:16;;;;;;;10.63;5.53;;;;;;;;;;4957007;28;20409;-73
2023/12/29 20:21:42;;;;;;;11.17;5.90;;;;;;;;;;4974860;28;20412;-74
2023/12/29 20:24:09;;;;;;;11.17;4.77;;;;;;;;;;4974446;28;20408;-73
2023/12/29 20:26:35;;;;;;;8.33;4.10;;;;;;;;;;4974678;28;20428;-73
2023/12/29 20:29:01;;;;;;;6.10;4.00;;;;;;;;;;4971639;28;20431;-73
2023/12/29 20:31:30;;;;;;;9.13;4.70;;;;;;;;;;4974885;28;20470;-76
2023/12/29 20:33:57;;;;;;;7.37;4.10;;;;;;;;;;4964385;28;20431;-72
2023/12/29 20:36:24;;;;;;;4.63;3.57;;;;;;;;;;4971410;28;20439;-71
2023/12/29 20:38:50;;;;;;;5.10;3.20;;;;;;;;;;4974440;28;20932;-71
2023/12/29 20:41:17;;;;;;;4.37;3.10;;;;;;;;;;4955979;28;20412;-75